Time;durP1;ratioP1;P1;durP2;ratioP2;P2;SDS_P1;SDS_P2;PMS_P1;PMS_P2;Temp;Humidity;BMP_temperature;BMP_pressure;BME280_temperature;BME280_humidity;BME280_pressure;Samples;Min_cycle;Max_cycle;Signal;HPM_P1;HPM_P2
2022/03/06 00:02:14;;;;;;;;;97.33;79.67;;;;;6.95;69.97;101682.75;5079885;28;45787;-83
2022/03/06 00:04:39;;;;;;;;;94.67;76.33;;;;;7.31;68.73;101748.59;5074603;28;45414;-82
2022/03/06 00:07:05;;;;;;;;;106.33;81.67;;;;;7.13;70.46;101734.47;5065873;28;45159;-82
2022/03/06 00:09:31;;;;;;;;;93.67;78.00;;;;;7.26;69.80;101762.34;5075966;27;45208;-82
2022/03/06 00:11:56;;;;;;;;;90.33;66.00;;;;;7.08;69.05;101723.69;5068070;28;45144;-81
2022/03/06 00:14:22;;;;;;;;;95.00;71.00;;;;;7.18;70.25;101752.31;5077071;28;47188;-81
2022/03/06 00:16:47;;;;;;;;;90.00;72.67;;;;;7.02;69.60;101728.63;5094528;27;45333;-81
2022/03/06 00:19:13;;;;;;;;;97.00;76.67;;;;;7.15;70.43;101753.88;5070767;28;45260;-82
2022/03/06 00:21:39;;;;;;;;;95.67;73.67;;;;;7.11;69.01;101752.81;5069939;27;45400;-81
2022/03/06 00:24:05;;;;;;;;;88.67;72.00;;;;;6.95;68.35;101729.16;5077520;28;47638;-82
2022/03/06 00:26:31;;;;;;;;;95.00;81.33;;;;;6.94;69.94;101740.47;5071165;28;45340;-82
2022/03/06 00:28:56;;;;;;;;;93.67;70.00;;;;;7.06;69.95;101762.19;5078756;28;45504;-82
2022/03/06 00:31:24;;;;;;;;;94.00;76.67;;;;;7.02;69.91;101752.28;5074384;28;46745;-82
2022/03/06 00:33:51;;;;;;;;;87.67;66.33;;;;;6.98;68.70;101758.22;5072347;28;46140;-82
2022/03/06 00:36:16;;;;;;;;;92.67;74.33;;;;;6.95;69.27;101753.69;5077947;28;45309;-83
2022/03/06 00:38:42;;;;;;;;;93.67;75.00;;;;;6.23;68.70;101626.31;5078137;27;45311;-82
2022/03/06 00:41:08;;;;;;;;;90.67;75.00;;;;;6.87;68.76;101752.38;5069634;28;46179;-83
2022/03/06 00:43:33;;;;;;;;;87.67;70.33;;;;;6.76;67.91;101744.75;5075195;28;46970;-82
2022/03/06 00:45:58;;;;;;;;;87.00;68.33;;;;;6.77;68.96;101747.44;5069120;28;45279;-82
2022/03/06 00:48:24;;;;;;;;;90.33;75.00;;;;;6.39;68.38;101684.94;5078557;27;45434;-80
2022/03/06 00:50:50;;;;;;;;;87.00;64.00;;;;;6.71;68.08;101745.38;5076730;28;45327;-82
2022/03/06 00:53:15;;;;;;;;;94.67;73.67;;;;;6.59;68.32;101734.19;5075739;28;45901;-82
2022/03/06 00:55:40;;;;;;;;;83.67;64.67;;;;;6.66;67.67;101746.84;5070121;27;45546;-83
2022/03/06 00:58:06;;;;;;;;;81.67;62.67;;;;;6.17;67.06;101664.44;5069909;27;45545;-81
2022/03/06 01:00:37;;;;;;;;;91.33;73.33;;;;;6.59;67.08;101755.22;5074427;28;45274;-82
2022/03/06 01:03:07;;;;;;;;;82.33;61.33;;;;;6.54;67.00;101753.16;5079690;27;47026;-82
2022/03/06 01:05:33;;;;;;;;;83.33;62.33;;;;;6.44;67.95;101754.34;5069559;28;45362;-82
2022/03/06 01:07:58;;;;;;;;;89.33;67.67;;;;;6.39;67.65;101743.59;5080609;28;45355;-82
2022/03/06 01:10:24;;;;;;;;;86.67;64.33;;;;;6.43;66.87;101749.91;5075939;28;45322;-81
2022/03/06 01:12:51;;;;;;;;;89.00;70.33;;;;;6.20;67.02;101717.13;5073862;28;47219;-81
2022/03/06 01:15:16;;;;;;;;;87.67;68.00;;;;;6.04;67.13;101695.22;5076977;27;45335;-81
2022/03/06 01:17:42;;;;;;;;;87.67;65.67;;;;;5.79;67.40;101671.00;5076312;28;45181;-81
2022/03/06 01:20:08;;;;;;;;;86.33;62.67;;;;;6.32;67.21;101764.16;5078194;27;45228;-81
2022/03/06 01:22:33;;;;;;;;;83.67;62.33;;;;;6.14;67.61;101732.53;5076874;28;46005;-82
2022/03/06 01:24:59;;;;;;;;;77.33;61.33;;;;;6.14;67.13;101741.28;5080250;28;45290;-82
2022/03/06 01:27:24;;;;;;;;;85.00;68.67;;;;;6.24;66.54;101766.34;5082155;28;45323;-82
2022/03/06 01:29:50;;;;;;;;;83.00;60.67;;;;;5.98;66.87;101733.34;5072667;28;47098;-82
2022/03/06 01:32:15;;;;;;;;;94.33;66.00;;;;;5.99;66.79;101736.09;5076062;28;45534;-83
2022/03/06 01:34:41;;;;;;;;;92.33;65.33;;;;;6.14;66.46;101767.53;5081077;28;45386;-83
2022/03/06 01:37:06;;;;;;;;;84.33;64.33;;;;;5.79;66.60;101706.00;5076411;27;45334;-82
2022/03/06 01:39:32;;;;;;;;;91.33;69.00;;;;;6.05;66.31;101764.41;5073424;28;45279;-83
2022/03/06 01:41:57;;;;;;;;;89.33;68.00;;;;;5.42;66.93;101670.59;5080245;28;46103;-82
2022/03/06 01:44:22;;;;;;;;;91.00;69.67;;;;;5.98;67.26;101778.88;5073122;28;44812;-82
2022/03/06 01:46:48;;;;;;;;;92.00;70.67;;;;;5.93;66.48;101772.44;5077798;28;45488;-82
2022/03/06 01:49:15;;;;;;;;;89.00;69.33;;;;;5.89;66.48;101766.91;5079620;28;46201;-81
2022/03/06 01:51:42;;;;;;;;;86.00;62.67;;;;;5.84;66.88;101771.88;5067482;27;46259;-80
2022/03/06 01:54:07;;;;;;;;;93.00;74.33;;;;;5.73;66.54;101762.47;5076842;27;45481;-82
2022/03/06 01:56:34;;;;;;;;;92.33;69.67;;;;;5.77;66.45;101778.50;5076554;28;45221;-83
2022/03/06 01:59:01;;;;;;;;;86.33;67.67;;;;;5.45;66.12;101724.09;5079250;28;46131;-82
2022/03/06 02:01:28;;;;;;;;;85.33;64.67;;;;;5.51;66.51;101740.19;5080077;28;45997;-83
2022/03/06 02:03:53;;;;;;;;;86.00;68.33;;;;;5.12;66.75;101675.78;5076123;27;45371;-81
2022/03/06 02:06:28;;;;;;;;;89.00;63.33;;;;;5.61;67.21;101768.78;5077715;28;45256;-85
2022/03/06 02:08:54;;;;;;;;;88.67;65.67;;;;;5.54;66.42;101760.44;5076221;28;45344;-83
2022/03/06 02:11:22;;;;;;;;;84.00;63.33;;;;;5.57;66.30;101774.69;5078737;28;47867;-84
2022/03/06 02:13:47;;;;;;;;;85.00;64.33;;;;;5.17;66.18;101716.28;5080266;27;45375;-82
2022/03/06 02:16:13;;;;;;;;;80.00;61.67;;;;;5.26;66.61;101727.31;5070809;27;45221;-82
2022/03/06 02:18:39;;;;;;;;;85.33;64.67;;;;;5.46;66.49;101772.19;5080617;28;45260;-81
2022/03/06 02:21:10;;;;;;;;;87.67;66.00;;;;;5.39;66.27;101770.94;5073031;27;45286;-83
2022/03/06 02:23:37;;;;;;;;;84.67;64.33;;;;;5.36;66.54;101768.13;5079422;28;46059;-80
2022/03/06 02:26:04;;;;;;;;;85.67;64.00;;;;;5.20;65.95;101750.53;5079842;28;45310;-81
2022/03/06 02:28:29;;;;;;;;;87.67;65.33;;;;;4.99;66.29;101715.19;5076543;27;45305;-83
2022/03/06 02:30:55;;;;;;;;;88.00;64.67;;;;;5.19;66.40;101766.19;5073368;28;45484;-81
2022/03/06 02:33:21;;;;;;;;;85.33;64.00;;;;;4.81;66.13;101705.34;5078747;28;46270;-81
2022/03/06 02:35:46;;;;;;;;;88.67;65.33;;;;;5.05;66.02;101747.91;5076172;27;45552;-80
2022/03/06 02:38:12;;;;;;;;;88.67;67.67;;;;;4.91;66.30;101736.56;5078935;28;46172;-81
2022/03/06 02:40:41;;;;;;;;;85.33;65.00;;;;;5.02;65.93;101757.28;5079300;28;47173;-82
2022/03/06 02:43:08;;;;;;;;;85.67;65.67;;;;;5.05;66.13;101771.47;5080267;27;45228;-83
2022/03/06 02:45:35;;;;;;;;;82.33;63.67;;;;;4.88;66.06;101749.47;5076261;28;45219;-82
2022/03/06 02:48:02;;;;;;;;;86.00;65.67;;;;;4.96;65.64;101778.78;5080052;28;45370;-81
2022/03/06 02:50:31;;;;;;;;;87.00;65.00;;;;;4.90;65.63;101771.44;5078998;28;48117;-82
2022/03/06 02:52:58;;;;;;;;;82.00;65.00;;;;;4.84;66.29;101768.41;5078694;28;46423;-81
2022/03/06 02:55:23;;;;;;;;;89.00;67.00;;;;;4.82;66.07;101783.16;5071650;28;45249;-81
2022/03/06 02:57:49;;;;;;;;;80.33;61.67;;;;;4.64;65.96;101756.69;5079951;27;45459;-80
2022/03/06 03:00:18;;;;;;;;;88.67;67.67;;;;;4.63;65.78;101756.59;5075640;27;46420;-82
2022/03/06 03:02:44;;;;;;;;;87.00;66.33;;;;;4.71;66.06;101773.72;5080377;27;44692;-81
2022/03/06 03:05:13;;;;;;;;;89.33;67.00;;;;;4.70;66.38;101771.88;5079180;28;45379;-82
2022/03/06 03:07:43;;;;;;;;;86.33;66.33;;;;;4.68;66.01;101771.78;5080067;28;45244;-82
2022/03/06 03:10:11;;;;;;;;;84.00;63.33;;;;;4.57;65.78;101750.97;5070997;28;45481;-81
2022/03/06 03:12:36;;;;;;;;;83.67;65.00;;;;;4.63;65.57;101780.16;5072726;28;45456;-81
2022/03/06 03:15:03;;;;;;;;;85.67;66.33;;;;;4.14;65.88;101688.00;5069757;27;45397;-81
2022/03/06 03:17:29;;;;;;;;;89.67;67.00;;;;;4.36;65.80;101733.06;5072910;28;46493;-80
2022/03/06 03:19:54;;;;;;;;;87.33;65.00;;;;;4.28;65.99;101723.81;5077600;27;45219;-80
2022/03/06 03:22:20;;;;;;;;;90.33;66.33;;;;;4.31;65.68;101744.06;5072848;28;45366;-80
2022/03/06 03:24:45;;;;;;;;;86.33;64.33;;;;;4.15;65.54;101724.75;5077858;28;45333;-80
2022/03/06 03:27:10;;;;;;;;;92.00;67.33;;;;;4.40;65.91;101771.75;5071674;28;45519;-80
2022/03/06 03:29:36;;;;;;;;;90.67;67.00;;;;;4.36;65.92;101761.84;5079038;28;46210;-80
2022/03/06 03:32:01;;;;;;;;;90.33;68.67;;;;;4.24;65.81;101758.47;5073498;27;45316;-80
2022/03/06 03:34:27;;;;;;;;;84.33;60.00;;;;;4.28;66.60;101780.50;5077862;28;45451;-80
2022/03/06 03:36:52;;;;;;;;;90.33;65.00;;;;;4.14;66.29;101756.03;5078549;28;46084;-80
2022/03/06 03:39:17;;;;;;;;;90.00;64.67;;;;;4.14;65.75;101767.41;5073885;27;45445;-80
2022/03/06 03:41:43;;;;;;;;;85.00;64.33;;;;;4.19;66.08;101768.63;5074958;28;45353;-80
2022/03/06 03:44:08;;;;;;;;;86.67;66.33;;;;;4.16;66.31;101783.22;5074928;27;45252;-80
2022/03/06 03:46:33;;;;;;;;;86.33;67.33;;;;;4.08;66.50;101782.69;5073624;28;45965;-80
2022/03/06 03:48:59;;;;;;;;;82.00;65.00;;;;;4.10;66.03;101793.28;5075993;27;45348;-80
2022/03/06 03:51:24;;;;;;;;;83.33;64.00;;;;;3.91;66.33;101757.16;5079668;27;45280;-80
2022/03/06 03:53:49;;;;;;;;;87.00;67.33;;;;;4.06;66.41;101791.25;5077804;27;45322;-80
2022/03/06 03:56:15;;;;;;;;;89.33;65.33;;;;;3.86;65.82;101769.00;5071978;28;45169;-80
2022/03/06 03:58:40;;;;;;;;;89.33;69.33;;;;;3.99;66.80;101792.56;5077809;28;48280;-80
2022/03/06 04:01:06;;;;;;;;;86.33;66.00;;;;;3.90;66.63;101791.97;5069440;28;45378;-80
2022/03/06 04:03:31;;;;;;;;;88.67;66.00;;;;;3.95;66.04;101799.31;5077985;28;45448;-80
2022/03/06 04:05:57;;;;;;;;;82.33;65.00;;;;;3.71;67.13;101766.28;5070158;28;45177;-79
2022/03/06 04:08:22;;;;;;;;;81.33;64.00;;;;;3.91;67.32;101815.59;5075045;28;46158;-80
2022/03/06 04:10:47;;;;;;;;;87.33;66.33;;;;;3.90;67.00;101811.16;5074668;28;45959;-80
2022/03/06 04:13:13;;;;;;;;;89.00;65.33;;;;;3.65;66.66;101776.31;5075999;28;45356;-79
2022/03/06 04:15:38;;;;;;;;;90.67;66.33;;;;;3.84;66.89;101822.91;5071597;28;45578;-79
2022/03/06 04:18:04;;;;;;;;;85.67;62.00;;;;;3.60;67.57;101789.06;5076648;28;45253;-79
2022/03/06 04:20:30;;;;;;;;;79.00;61.67;;;;;3.74;66.72;101814.44;5072977;28;45243;-79
2022/03/06 04:22:56;;;;;;;;;85.67;64.67;;;;;3.72;67.09;101825.59;5076990;28;45652;-79
2022/03/06 04:25:22;;;;;;;;;88.67;66.33;;;;;3.20;67.67;101735.78;5074009;28;45436;-79
2022/03/06 04:27:47;;;;;;;;;90.33;68.33;;;;;3.69;67.21;101822.78;5076349;28;46101;-80
2022/03/06 04:30:13;;;;;;;;;91.00;71.00;;;;;3.42;67.42;101782.56;5074915;28;45314;-79
2022/03/06 04:32:38;;;;;;;;;90.33;70.00;;;;;3.67;67.57;101821.75;5076447;28;45764;-80
2022/03/06 04:35:05;;;;;;;;;88.33;67.00;;;;;3.56;67.58;101810.59;5075916;28;45587;-80
2022/03/06 04:37:30;;;;;;;;;85.33;68.00;;;;;3.63;66.78;101828.50;5077545;28;46876;-80
2022/03/06 04:39:56;;;;;;;;;90.00;70.33;;;;;3.62;66.81;101833.63;5073049;28;45176;-79
2022/03/06 04:42:21;;;;;;;;;91.00;66.67;;;;;3.60;66.57;101833.50;5082871;27;45342;-80
2022/03/06 04:44:46;;;;;;;;;88.33;68.33;;;;;3.54;67.87;101826.16;5072691;27;45200;-80
2022/03/06 04:47:12;;;;;;;;;82.00;67.33;;;;;3.57;67.44;101842.06;5082424;27;45351;-80
2022/03/06 04:49:37;;;;;;;;;90.67;68.67;;;;;3.21;68.24;101769.84;5070884;27;45157;-81
2022/03/06 04:52:03;;;;;;;;;90.33;68.00;;;;;3.47;67.25;101818.69;5081757;28;45392;-81
2022/03/06 04:54:29;;;;;;;;;85.00;64.33;;;;;3.23;67.00;101786.53;5074924;28;45523;-81
2022/03/06 04:56:54;;;;;;;;;90.00;68.00;;;;;3.31;68.19;101803.66;5078626;28;47099;-80
2022/03/06 04:59:19;;;;;;;;;92.00;67.00;;;;;3.50;67.58;101842.44;5077113;28;45138;-80
2022/03/06 05:01:45;;;;;;;;;80.00;64.00;;;;;3.47;67.63;101842.19;5069270;27;45224;-80
2022/03/06 05:04:10;;;;;;;;;85.67;66.67;;;;;3.23;67.14;101804.84;5077040;28;45491;-80
2022/03/06 05:06:36;;;;;;;;;92.00;68.33;;;;;3.10;68.52;101786.47;5070324;27;46508;-80
2022/03/06 05:09:01;;;;;;;;;90.00;67.67;;;;;3.37;67.54;101834.53;5079258;28;45444;-81
2022/03/06 05:11:27;;;;;;;;;88.67;64.33;;;;;3.31;67.71;101827.19;5082284;28;45443;-81
2022/03/06 05:13:52;;;;;;;;;87.00;66.67;;;;;3.42;67.89;101848.84;5080691;28;45297;-81
2022/03/06 05:16:18;;;;;;;;;92.67;69.00;;;;;3.24;67.02;101808.34;5072508;28;45304;-81
2022/03/06 05:18:43;;;;;;;;;86.00;64.67;;;;;3.24;68.38;101818.78;5081370;28;45364;-81
2022/03/06 05:21:08;;;;;;;;;95.00;72.67;;;;;3.05;67.63;101790.47;5073668;28;45381;-81
2022/03/06 05:23:34;;;;;;;;;81.33;65.00;;;;;3.27;67.46;101826.84;5081552;28;45328;-80
2022/03/06 05:25:59;;;;;;;;;89.00;65.33;;;;;3.20;68.36;101822.91;5074418;28;45424;-80
2022/03/06 05:28:27;;;;;;;;;86.33;65.67;;;;;3.03;67.85;101805.16;5080040;28;45696;-80
2022/03/06 05:30:52;;;;;;;;;92.67;69.00;;;;;3.33;68.19;101861.25;5074911;28;45464;-81
2022/03/06 05:33:18;;;;;;;;;84.67;63.67;;;;;3.17;67.33;101837.47;5077373;28;46099;-80
2022/03/06 05:35:43;;;;;;;;;87.33;67.33;;;;;2.89;67.87;101802.47;5076171;28;45150;-80
2022/03/06 05:38:08;;;;;;;;;90.67;70.33;;;;;2.90;67.93;101808.59;5081329;28;45207;-81
2022/03/06 05:40:34;;;;;;;;;85.33;64.00;;;;;3.13;67.72;101858.13;5079875;28;45295;-81
2022/03/06 05:42:59;;;;;;;;;93.33;67.33;;;;;3.17;67.57;101854.03;5080014;28;46885;-81
2022/03/06 05:45:24;;;;;;;;;84.33;65.00;;;;;3.18;68.46;101855.84;5072374;27;45291;-80
2022/03/06 05:47:50;;;;;;;;;94.00;70.67;;;;;2.55;68.88;101751.22;5081072;27;45251;-81
2022/03/06 05:50:15;;;;;;;;;88.67;64.33;;;;;2.95;68.95;101830.72;5071663;27;45320;-81
2022/03/06 05:52:41;;;;;;;;;91.33;69.00;;;;;3.16;67.62;101870.50;5081181;28;45368;-80
2022/03/06 05:55:07;;;;;;;;;90.67;69.00;;;;;2.88;68.51;101837.19;5073144;27;46588;-89
2022/03/06 05:57:33;;;;;;;;;93.00;70.33;;;;;3.13;68.89;101883.34;5083533;27;45233;-84
2022/03/06 05:59:58;;;;;;;;;88.67;67.00;;;;;2.94;67.90;101847.19;5079684;27;45618;-81
2022/03/06 06:02:24;;;;;;;;;92.67;68.67;;;;;3.11;67.69;101877.13;5071234;28;44766;-82
2022/03/06 06:04:49;;;;;;;;;93.33;66.67;;;;;3.04;68.21;101872.25;5076233;28;45547;-82
2022/03/06 06:07:15;;;;;;;;;86.67;66.67;;;;;2.98;69.01;101857.03;5070504;28;45454;-82
2022/03/06 06:09:41;;;;;;;;;88.00;66.33;;;;;3.06;67.76;101876.78;5078611;28;45481;-83
2022/03/06 06:12:07;;;;;;;;;89.33;68.67;;;;;2.75;68.14;101831.91;5081633;27;45149;-79
2022/03/06 06:14:33;;;;;;;;;92.67;70.00;;;;;3.02;69.39;101887.78;5078419;28;47159;-80
2022/03/06 06:16:59;;;;;;;;;93.00;67.33;;;;;2.71;69.36;101839.38;5071586;27;45231;-83
2022/03/06 06:19:24;;;;;;;;;90.00;68.33;;;;;2.35;68.50;101791.53;5079369;28;45274;-81
2022/03/06 06:21:50;;;;;;;;;93.33;69.33;;;;;3.00;68.38;101886.81;5072136;27;45398;-82
2022/03/06 06:24:15;;;;;;;;;90.00;67.33;;;;;2.90;69.29;101879.97;5079239;28;47272;-83
2022/03/06 06:26:47;;;;;;;;;92.67;70.33;;;;;2.82;68.44;101867.19;5073562;27;45361;-83
2022/03/06 06:29:13;;;;;;;;;95.33;70.67;;;;;2.83;67.92;101869.91;5080563;28;45203;-81
2022/03/06 06:31:39;;;;;;;;;93.00;70.67;;;;;2.78;68.81;101868.66;5074630;27;45331;-84
2022/03/06 06:34:05;;;;;;;;;90.67;66.33;;;;;2.83;68.58;101882.97;5080455;28;47150;-87
2022/03/06 06:36:30;;;;;;;;;83.67;61.67;;;;;2.83;69.91;101885.56;5098407;27;45267;-86
2022/03/06 06:38:55;;;;;;;;;97.00;78.33;;;;;2.83;69.26;101889.88;5080033;28;45723;-85
2022/03/06 06:41:21;;;;;;;;;101.00;74.33;;;;;2.79;68.37;101877.41;5077090;27;45476;-84
2022/03/06 06:43:47;;;;;;;;;100.00;72.33;;;;;2.79;69.13;101888.75;5079329;27;46061;-84
2022/03/06 06:46:12;;;;;;;;;96.33;71.33;;;;;2.92;68.42;101909.75;5072628;28;45313;-84
2022/03/06 06:48:38;;;;;;;;;95.67;77.67;;;;;2.92;68.45;101912.34;5080154;27;45845;-83
2022/03/06 06:51:04;;;;;;;;;95.67;76.00;;;;;2.85;69.76;101903.94;5070462;28;45511;-81
2022/03/06 06:53:30;;;;;;;;;96.33;71.33;;;;;2.88;68.94;101910.28;5080072;27;45299;-82
2022/03/06 06:55:55;;;;;;;;;93.33;71.00;;;;;2.62;69.18;101868.34;5074823;28;45261;-85
2022/03/06 06:58:21;;;;;;;;;94.67;73.67;;;;;2.69;68.58;101881.97;5079033;28;45350;-86
2022/03/06 07:00:46;;;;;;;;;100.67;76.00;;;;;2.91;69.49;101909.59;5076900;28;45981;-85
2022/03/06 07:03:11;;;;;;;;;94.67;69.00;;;;;2.93;68.80;101913.25;5080147;28;45186;-87
2022/03/06 07:05:37;;;;;;;;;98.67;76.00;;;;;2.84;69.10;101902.16;5075995;28;45382;-84
2022/03/06 07:08:02;;;;;;;;;94.00;71.00;;;;;2.91;68.92;101923.59;5079537;28;45431;-84
2022/03/06 07:10:28;;;;;;;;;87.33;66.33;;;;;2.93;68.35;101915.88;5078512;28;46551;-84
2022/03/06 07:12:55;;;;;;;;;103.33;77.33;;;;;2.60;68.87;101863.00;5072522;28;45281;-85
2022/03/06 07:15:21;;;;;;;;;100.67;73.00;;;;;2.96;68.47;101931.75;5075911;28;45281;-88
2022/03/06 07:17:47;;;;;;;;;92.33;69.33;;;;;2.80;68.74;101900.09;5075715;28;45315;-89
2022/03/06 07:20:12;;;;;;;;;96.33;71.67;;;;;2.99;68.80;101939.81;5076147;28;45315;-86
2022/03/06 07:22:38;;;;;;;;;92.33;69.33;;;;;2.72;68.47;101880.34;5073698;28;47614;-76
2022/03/06 07:25:04;;;;;;;;;97.00;70.00;;;;;2.93;69.75;101923.69;5077127;28;45440;-74
2022/03/06 07:27:30;;;;;;;;;95.33;73.33;;;;;2.77;69.62;101889.44;5079358;28;45362;-88
2022/03/06 07:29:56;;;;;;;;;101.00;74.67;;;;;2.82;69.36;101890.66;5077768;27;45470;-86
2022/03/06 07:32:22;;;;;;;;;91.67;69.00;;;;;2.91;69.07;101910.53;5075266;28;46292;-87
2022/03/06 07:34:48;;;;;;;;;98.00;72.33;;;;;3.23;68.51;101952.84;5079701;28;45178;-84
2022/03/06 07:37:13;;;;;;;;;101.67;80.67;;;;;3.27;68.28;101957.50;5075287;28;45501;-89
2022/03/06 07:39:39;;;;;;;;;95.67;75.00;;;;;2.98;68.23;101904.06;5071890;28;45212;-84
2022/03/06 07:42:04;;;;;;;;;90.67;71.67;;;;;2.67;68.29;101854.81;5078599;28;45178;-84
2022/03/06 07:44:30;;;;;;;;;89.00;62.00;;;;;3.02;68.01;101907.78;5072541;27;44785;-85
2022/03/06 07:46:55;;;;;;;;;93.67;71.33;;;;;3.37;68.59;101973.03;5077394;28;45285;-84
2022/03/06 07:49:20;;;;;;;;;91.33;70.00;;;;;3.19;67.79;101945.56;5077845;28;46902;-85
2022/03/06 07:51:46;;;;;;;;;91.00;68.00;;;;;3.29;68.15;101953.28;5079385;28;45367;-88
2022/03/06 07:54:14;;;;;;;;;90.67;68.00;;;;;3.24;68.20;101950.34;5076231;28;45361;-89
2022/03/06 07:56:41;;;;;;;;;93.33;70.67;;;;;3.22;68.39;101933.66;5075130;28;45386;-84
2022/03/06 07:59:06;;;;;;;;;90.67;67.33;;;;;3.53;68.11;101973.34;5074967;27;45382;-85
2022/03/06 08:01:32;;;;;;;;;99.00;74.33;;;;;3.49;68.24;101973.00;5067275;27;45275;-85
2022/03/06 08:03:57;;;;;;;;;96.00;70.67;;;;;3.61;67.78;101991.28;5077970;28;45706;-86
2022/03/06 08:06:23;;;;;;;;;99.67;69.33;;;;;3.46;67.82;101949.28;5068019;28;45263;-86
2022/03/06 08:08:49;;;;;;;;;95.33;69.33;;;;;3.58;67.41;101953.69;5077720;27;45264;-85
2022/03/06 08:11:14;;;;;;;;;91.67;68.00;;;;;3.90;67.19;101998.59;5070501;27;45425;-87
2022/03/06 08:13:39;;;;;;;;;96.67;72.00;;;;;3.84;67.01;101967.69;5079497;28;45257;-86
2022/03/06 08:16:05;;;;;;;;;87.67;65.33;;;;;4.03;66.83;101999.56;5071916;28;45407;-88
2022/03/06 08:18:30;;;;;;;;;98.67;70.67;;;;;3.75;66.65;101933.94;5084378;28;45521;-87
2022/03/06 08:20:56;;;;;;;;;87.67;64.67;;;;;3.80;65.45;101963.91;5082360;28;48180;-85
2022/03/06 08:23:21;;;;;;;;;90.00;69.00;;;;;4.06;66.39;101980.50;5081536;27;45383;-89
2022/03/06 08:25:46;;;;;;;;;91.00;68.67;;;;;4.14;65.77;102015.97;5074110;28;45299;-89
2022/03/06 08:28:12;;;;;;;;;86.67;65.33;;;;;3.88;66.06;101960.94;5081894;28;45287;-89
2022/03/06 08:30:37;;;;;;;;;104.67;82.33;;;;;3.97;65.58;101978.19;5075604;28;46047;-87
2022/03/06 08:33:03;;;;;;;;;100.00;75.33;;;;;4.04;65.60;101984.75;5079461;28;45457;-87
2022/03/06 08:35:28;;;;;;;;;228.75;186.50;;;;;3.99;65.57;101973.06;5081130;28;45405;-88
2022/03/06 08:37:54;;;;;;;;;109.25;96.75;;;;;3.96;64.89;101946.69;5069491;28;44765;-86
2022/03/06 08:40:19;;;;;;;;;92.67;73.33;;;;;4.39;64.79;102009.81;5073180;28;45454;-80
2022/03/06 08:42:45;;;;;;;;;94.00;73.67;;;;;4.39;64.65;102001.97;5080307;28;45302;-76
2022/03/06 08:45:11;;;;;;;;;164.75;135.75;;;;;4.34;64.92;101974.56;5077448;28;44800;-87
2022/03/06 08:47:36;;;;;;;;;94.00;73.33;;;;;4.43;64.80;101983.06;5079639;28;45243;-88
2022/03/06 08:50:03;;;;;;;;;100.33;76.33;;;;;4.32;63.93;101966.63;5069436;27;45351;-86
2022/03/06 08:52:28;;;;;;;;;90.00;69.67;;;;;4.43;64.36;101978.75;5077545;28;45372;-86
2022/03/06 08:54:54;;;;;;;;;84.33;66.67;;;;;4.72;63.99;102019.97;5067835;28;45489;-86
2022/03/06 08:57:19;;;;;;;;;275.25;229.00;;;;;4.38;63.69;101945.19;5079025;27;45267;-85
2022/03/06 08:59:44;;;;;;;;;167.00;143.75;;;;;4.78;64.04;102005.47;5072637;27;45318;-80
2022/03/06 09:02:10;;;;;;;;;218.50;168.25;;;;;4.91;63.80;102021.22;5065779;28;45421;-79
2022/03/06 09:04:35;;;;;;;;;110.50;89.00;;;;;4.82;62.85;101997.94;5073664;27;45259;-79
2022/03/06 09:07:01;;;;;;;;;90.67;65.33;;;;;4.96;63.29;102011.03;5066800;27;45438;-84
2022/03/06 09:09:26;;;;;;;;;136.50;108.75;;;;;5.09;63.29;102026.75;5075905;28;45062;-81
2022/03/06 09:11:51;;;;;;;;;89.67;68.00;;;;;4.85;62.66;101969.31;5073898;28;45322;-83
2022/03/06 09:14:17;;;;;;;;;89.67;68.67;;;;;5.19;62.47;102016.09;5077962;27;45280;-83
2022/03/06 09:16:42;;;;;;;;;98.67;77.33;;;;;5.30;62.06;102015.06;5069591;27;45350;-84
2022/03/06 09:19:08;;;;;;;;;98.67;78.33;;;;;5.45;61.73;102024.75;5076208;28;47124;-84
2022/03/06 09:21:33;;;;;;;;;82.67;61.67;;;;;5.57;62.20;102023.81;5077089;28;45263;-83
2022/03/06 09:23:59;;;;;;;;;84.33;63.33;;;;;5.68;59.77;102032.34;5075183;28;45350;-84
2022/03/06 09:26:25;;;;;;;;;86.67;60.67;;;;;5.61;61.89;101989.09;5082232;27;45469;-82
2022/03/06 09:28:50;;;;;;;;;75.67;60.00;;;;;5.86;61.78;102021.25;5080535;27;45457;-81
2022/03/06 09:31:16;;;;;;;;;167.25;147.50;;;;;5.54;58.58;101955.41;5076380;28;45382;-81
2022/03/06 09:33:41;;;;;;;;;83.67;64.33;;;;;5.79;60.85;101993.69;5073181;28;45532;-83
2022/03/06 09:36:07;;;;;;;;;73.00;58.00;;;;;6.07;58.95;102027.84;5072578;27;45620;-76
2022/03/06 09:38:32;;;;;;;;;79.67;61.67;;;;;6.10;58.00;102033.28;5079676;28;47023;-76
2022/03/06 09:41:03;;;;;;;;;73.33;57.67;;;;;5.97;58.32;101993.97;5072520;27;45316;-76
2022/03/06 09:43:28;;;;;;;;;72.00;55.50;;;;;6.25;57.15;102029.00;5081117;27;45342;-76
2022/03/06 09:46:04;;;;;;;;;79.33;62.33;;;;;6.38;59.55;102033.25;5072288;27;45433;-74
2022/03/06 09:48:30;;;;;;;;;76.00;55.25;;;;;5.99;58.52;101945.09;5080165;27;45300;-75
2022/03/06 09:50:56;;;;;;;;;69.75;55.25;;;;;6.58;57.70;102037.13;5070407;28;45380;-75
2022/03/06 09:53:21;;;;;;;;;67.50;53.00;;;;;6.65;56.50;102030.50;5077495;28;45461;-75
2022/03/06 09:55:46;;;;;;;;;69.00;56.50;;;;;6.78;56.45;102047.88;5072808;28;45146;-75
2022/03/06 09:58:14;;;;;;;;;67.75;54.50;;;;;6.79;57.16;102011.19;5080382;27;46141;-75
2022/03/06 10:00:39;;;;;;;;;73.67;58.00;;;;;7.03;54.96;102026.59;5069733;28;45169;-75
2022/03/06 10:03:05;;;;;;;;;68.25;53.25;;;;;7.21;55.35;102032.03;5074059;28;45292;-76
2022/03/06 10:05:34;;;;;;;;;68.25;55.50;;;;;7.52;55.88;102046.09;5078554;28;45537;-76
2022/03/06 10:08:22;;;;;;;;;60.50;45.00;;;;;7.81;55.31;102042.50;5078258;28;47141;-75
2022/03/06 10:10:53;;;;;;;;;60.25;50.75;;;;;8.04;55.56;102041.13;5076436;28;45374;-77
2022/03/06 10:13:34;;;;;;;;;63.25;50.50;;;;;8.21;53.93;102023.59;5079054;28;45480;-76
2022/03/06 10:16:09;;;;;;;;;62.25;47.75;;;;;8.55;55.09;102037.69;5077727;28;46339;-76
2022/03/06 10:18:40;;;;;;;;;60.25;48.75;;;;;8.78;50.10;102044.13;5081003;28;45597;-75
2022/03/06 10:21:09;;;;;;;;;56.50;47.00;;;;;8.98;50.30;102047.78;5079750;28;45342;-75
2022/03/06 10:23:35;;;;;;;;;61.50;49.50;;;;;9.26;52.11;102037.78;5079284;28;45412;-76
2022/03/06 10:26:05;;;;;;;;;63.50;49.75;;;;;9.57;49.41;102026.97;5074373;28;45245;-76
2022/03/06 10:28:31;;;;;;;;;56.25;46.25;;;;;9.82;49.74;102022.88;5080181;28;45519;-77
2022/03/06 10:31:04;;;;;;;;;59.75;46.25;;;;;10.14;49.72;102023.44;5074908;27;45929;-76
2022/03/06 10:33:30;;;;;;;;;52.75;39.00;;;;;10.40;48.46;102019.41;5080351;28;45289;-77
2022/03/06 10:35:58;;;;;;;;;52.00;43.75;;;;;10.46;50.22;101970.34;5078845;28;47390;-77
2022/03/06 10:38:36;;;;;;;;;68.00;53.00;;;;;10.95;45.15;102025.34;5078905;28;47435;-76
2022/03/06 10:41:12;;;;;;;;;57.00;46.25;;;;;11.24;45.70;102032.69;5071710;28;45452;-76
2022/03/06 10:43:38;;;;;;;;;53.50;42.50;;;;;11.37;46.74;102017.38;5079788;28;45377;-76
2022/03/06 10:46:16;;;;;;;;;46.00;39.25;;;;;11.56;42.66;102031.34;5079053;28;45933;-76
2022/03/06 10:48:57;;;;;;;;;58.00;47.25;;;;;11.59;42.47;102028.81;5079669;27;46474;-76
2022/03/06 10:51:24;;;;;;;;;53.25;42.25;;;;;11.74;41.29;102020.59;5073174;28;45449;-77
2022/03/06 10:54:00;;;;;;;;;63.00;49.25;;;;;11.62;40.90;102013.03;5078737;27;45474;-75
2022/03/06 10:56:26;;;;;;;;;64.50;52.75;;;;;11.81;43.28;102031.47;5072233;28;46161;-77
2022/03/06 10:58:52;;;;;;;;;41.50;35.25;;;;;11.75;42.67;101990.59;5077965;28;46182;-76
2022/03/06 11:01:17;;;;;;;;;46.00;36.75;;;;;12.07;39.89;102024.56;5075833;28;45469;-76
2022/03/06 11:03:44;;;;;;;;;44.50;36.75;;;;;12.20;43.59;102022.38;5077030;28;45496;-75
2022/03/06 11:06:11;;;;;;;;;39.50;34.00;;;;;12.06;38.82;102000.66;5069393;27;45612;-75
2022/03/06 11:08:39;;;;;;;;;36.50;31.50;;;;;12.23;40.63;102025.13;5065316;28;47081;-77
2022/03/06 11:11:06;;;;;;;;;27.25;26.25;;;;;11.94;36.69;101971.06;5069956;28;45391;-76
2022/03/06 11:13:32;;;;;;;;;41.00;32.50;;;;;12.27;36.20;102022.66;5079654;28;45319;-77